Time;durP1;ratioP1;P1;durP2;ratioP2;P2;SDS_P1;SDS_P2;PMS_P1;PMS_P2;Temp;Humidity;BMP_temperature;BMP_pressure;BME280_temperature;BME280_humidity;BME280_pressure;Samples;Min_cycle;Max_cycle;Signal;HPM_P1;HPM_P2
2023/04/21 00:01:29;;;;;;;26.23;23.73;;;;;;;6.82;100.00;101320.16;5242409;28;20033;-65
2023/04/21 00:04:00;;;;;;;25.90;23.40;;;;;;;6.79;100.00;101325.28;5241826;28;20121;-66
2023/04/21 00:06:32;;;;;;;27.60;25.00;;;;;;;6.82;100.00;101321.00;5241825;28;20037;-66
2023/04/21 00:09:04;;;;;;;26.57;24.07;;;;;;;6.82;100.00;101317.56;5241591;28;20272;-66
2023/04/21 00:11:35;;;;;;;27.48;24.55;;;;;;;6.82;100.00;101318.41;5241657;28;20425;-67
2023/04/21 00:14:07;;;;;;;28.70;25.80;;;;;;;6.78;100.00;101310.59;5242003;28;20029;-66
2023/04/21 00:16:38;;;;;;;28.90;26.17;;;;;;;6.76;100.00;101305.38;5242053;28;20072;-67
2023/04/21 00:19:12;;;;;;;28.80;25.83;;;;;;;6.73;100.00;101306.25;5241787;28;20036;-66
2023/04/21 00:21:44;;;;;;;28.55;25.88;;;;;;;6.67;100.00;101297.53;5241959;28;20381;-66
2023/04/21 00:24:15;;;;;;;29.07;26.23;;;;;;;6.67;100.00;101292.34;5241695;28;20038;-67
2023/04/21 00:26:46;;;;;;;29.70;26.70;;;;;;;6.64;100.00;101294.91;5241315;28;20057;-67
2023/04/21 00:29:18;;;;;;;30.03;27.13;;;;;;;6.70;100.00;101289.81;5241649;28;20041;-67
2023/04/21 00:31:49;;;;;;;31.47;28.37;;;;;;;6.72;100.00;101282.91;5240350;28;20457;-67
2023/04/21 00:34:20;;;;;;;30.27;27.40;;;;;;;6.70;100.00;101290.66;5241619;28;20080;-67
2023/04/21 00:36:52;;;;;;;30.23;27.03;;;;;;;6.73;100.00;101293.28;5241510;28;20039;-67
2023/04/21 00:39:23;;;;;;;30.60;27.70;;;;;;;6.73;100.00;101292.44;5241854;28;20064;-67
2023/04/21 00:41:56;;;;;;;29.60;26.80;;;;;;;6.72;100.00;101277.72;5241462;28;20152;-66
2023/04/21 00:44:27;;;;;;;31.25;27.92;;;;;;;6.82;100.00;101268.31;5241536;28;20065;-66
2023/04/21 00:46:58;;;;;;;30.23;27.23;;;;;;;6.86;100.00;101268.38;5244772;28;20037;-66
2023/04/21 00:49:30;;;;;;;31.10;28.10;;;;;;;6.75;100.00;101282.94;5245337;28;20100;-66
2023/04/21 00:52:06;;;;;;;28.93;26.07;;;;;;;6.76;100.00;101289.84;5245545;28;20412;-66
2023/04/21 00:54:38;;;;;;;29.33;26.48;;;;;;;6.73;100.00;101284.66;5245571;28;20025;-66
2023/04/21 00:57:10;;;;;;;31.20;28.10;;;;;;;6.77;100.00;101282.97;5245751;28;20061;-66
2023/04/21 00:59:42;;;;;;;31.45;28.25;;;;;;;6.65;100.00;101281.97;5243918;28;20080;-66
2023/04/21 01:02:15;;;;;;;29.20;26.47;;;;;;;6.68;100.00;101276.84;5244706;28;20354;-66
2023/04/21 01:04:47;;;;;;;30.65;27.67;;;;;;;6.71;100.00;101270.78;5245328;28;20531;-66
2023/04/21 01:07:19;;;;;;;30.13;27.13;;;;;;;6.68;100.00;101283.72;5244981;28;20025;-67
2023/04/21 01:09:50;;;;;;;30.70;27.70;;;;;;;6.78;100.00;101264.84;5244925;28;20029;-66
2023/04/21 01:12:21;;;;;;;32.37;29.23;;;;;;;6.62;100.00;101260.31;5244875;28;20033;-67
2023/04/21 01:14:53;;;;;;;33.07;29.53;;;;;;;6.69;100.00;101264.72;5245407;28;20044;-66
2023/04/21 01:17:25;;;;;;;31.33;28.13;;;;;;;6.68;100.00;101260.41;5244806;28;20596;-66
2023/04/21 01:20:00;;;;;;;32.33;28.83;;;;;;;6.65;100.00;101260.34;5244967;28;20040;-66
2023/04/21 01:22:32;;;;;;;30.45;27.33;;;;;;;6.60;100.00;101251.66;5244365;28;20032;-67
2023/04/21 01:25:04;;;;;;;32.87;29.47;;;;;;;6.66;100.00;101242.25;5244978;28;20365;-66
2023/04/21 01:27:36;;;;;;;30.70;27.55;;;;;;;6.65;100.00;101239.63;5244544;28;20104;-66
2023/04/21 01:30:08;;;;;;;31.47;27.80;;;;;;;6.68;100.00;101239.66;5244233;28;20150;-66
2023/04/21 01:32:40;;;;;;;31.48;28.33;;;;;;;6.61;100.00;101238.75;5245005;28;20064;-66
2023/04/21 01:35:11;;;;;;;31.17;28.07;;;;;;;6.69;100.00;101238.81;5243525;28;20084;-67
2023/04/21 01:37:43;;;;;;;28.43;25.63;;;;;;;6.61;100.00;101237.88;5244443;28;20029;-67
2023/04/21 01:40:14;;;;;;;31.10;27.90;;;;;;;6.54;100.00;101232.63;5244094;28;20069;-66
2023/04/21 01:42:46;;;;;;;28.37;25.57;;;;;;;6.60;100.00;101241.31;5226491;28;20057;-67
2023/04/21 01:45:17;;;;;;;31.50;28.40;;;;;;;6.57;100.00;101237.00;5244590;28;20042;-67
2023/04/21 01:47:48;;;;;;;31.07;27.83;;;;;;;6.49;100.00;101234.31;5243967;28;20604;-67
2023/04/21 01:50:20;;;;;;;30.67;26.97;;;;;;;6.55;100.00;101220.53;5244100;28;20036;-66
2023/04/21 01:52:51;;;;;;;30.83;27.73;;;;;;;6.50;100.00;101212.72;5244608;28;20026;-66
2023/04/21 01:55:24;;;;;;;30.90;27.20;;;;;;;6.46;100.00;101202.34;5244133;28;20048;-68
2023/04/21 01:57:58;;;;;;;28.67;25.67;;;;;;;6.41;100.00;101215.22;5243838;28;20091;-66
2023/04/21 02:00:30;;;;;;;31.02;27.63;;;;;;;6.44;100.00;101199.72;5244243;28;20071;-67
2023/04/21 02:03:01;;;;;;;28.73;25.80;;;;;;;6.39;100.00;101198.78;5244026;28;20428;-66
2023/04/21 02:05:33;;;;;;;31.07;27.83;;;;;;;6.41;100.00;101197.09;5243886;28;20465;-67
2023/04/21 02:08:05;;;;;;;32.23;27.63;;;;;;;6.40;100.00;101174.63;5244087;28;20033;-67
2023/04/21 02:10:36;;;;;;;31.20;27.88;;;;;;;6.37;100.00;101179.78;5242624;28;20040;-66
2023/04/21 02:13:08;;;;;;;29.93;26.83;;;;;;;6.33;100.00;101196.16;5244157;28;20025;-66
2023/04/21 02:15:40;;;;;;;30.67;27.37;;;;;;;6.40;100.00;101192.75;5243415;28;20477;-67
2023/04/21 02:18:12;;;;;;;34.10;28.13;;;;;;;6.41;100.00;101193.63;5243913;28;20438;-66
2023/04/21 02:20:43;;;;;;;30.63;27.10;;;;;;;6.43;100.00;101197.97;5243554;28;20056;-67
2023/04/21 02:23:15;;;;;;;32.37;27.80;;;;;;;6.32;100.00;101184.91;5243843;28;20033;-66
2023/04/21 02:25:46;;;;;;;28.67;25.27;;;;;;;6.29;100.00;101181.41;5243474;28;20033;-66
2023/04/21 02:28:17;;;;;;;32.40;27.77;;;;;;;6.20;100.00;101182.19;5243183;28;20026;-66
2023/04/21 02:30:49;;;;;;;32.60;27.50;;;;;;;6.18;100.00;101181.28;5243135;28;20120;-66
2023/04/21 02:33:20;;;;;;;32.10;27.67;;;;;;;6.21;100.00;101189.09;5243451;28;20385;-67
2023/04/21 02:35:51;;;;;;;33.00;28.97;;;;;;;6.26;100.00;101174.47;5243874;28;20029;-66
2023/04/21 02:38:23;;;;;;;30.17;27.00;;;;;;;6.24;100.00;101171.00;5243593;28;20036;-66
2023/04/21 02:40:55;;;;;;;32.00;28.50;;;;;;;6.24;100.00;101173.59;5243272;28;20041;-66
2023/04/21 02:43:26;;;;;;;31.55;28.15;;;;;;;6.30;100.00;101176.25;5241751;28;20053;-66
2023/04/21 02:45:58;;;;;;;31.47;28.07;;;;;;;6.36;100.00;101178.06;5243165;28;20099;-66
2023/04/21 02:48:29;;;;;;;37.13;29.80;;;;;;;6.35;100.00;101179.75;5242744;28;20052;-66
2023/04/21 02:51:01;;;;;;;34.97;28.67;;;;;;;6.38;100.00;101179.78;5241559;28;20084;-66
2023/04/21 02:53:33;;;;;;;34.25;29.77;;;;;;;6.39;100.00;101181.53;5243774;28;20033;-66
2023/04/21 02:56:08;;;;;;;35.27;29.80;;;;;;;6.30;100.00;101177.97;5243239;28;20033;-66
2023/04/21 02:58:39;;;;;;;34.25;29.50;;;;;;;6.29;100.00;101177.09;5241539;28;20112;-66
2023/04/21 03:01:11;;;;;;;33.07;29.57;;;;;;;6.25;100.00;101174.44;5243007;28;20061;-66
2023/04/21 03:03:42;;;;;;;34.00;30.33;;;;;;;6.28;100.00;101171.91;5243278;28;20095;-67
2023/04/21 03:06:13;;;;;;;36.07;30.77;;;;;;;6.20;100.00;101166.66;5242761;28;20030;-66
2023/04/21 03:08:45;;;;;;;32.73;29.17;;;;;;;6.11;100.00;101167.41;5242175;28;20029;-67
2023/04/21 03:11:16;;;;;;;37.67;31.30;;;;;;;5.95;100.00;101171.50;5242637;28;20029;-67
2023/04/21 03:13:47;;;;;;;35.23;30.10;;;;;;;5.85;100.00;101173.09;5242556;28;20033;-67
2023/04/21 03:16:19;;;;;;;34.97;31.07;;;;;;;5.78;100.00;101168.72;5242526;28;20072;-67
2023/04/21 03:18:50;;;;;;;32.77;28.70;;;;;;;5.72;100.00;101166.03;5242212;28;20523;-67
2023/04/21 03:21:21;;;;;;;36.13;29.97;;;;;;;5.68;100.00;101169.41;5242420;28;20044;-67
2023/04/21 03:23:53;;;;;;;40.73;30.43;;;;;;;5.58;100.00;101178.78;5242288;28;20033;-67
2023/04/21 03:26:24;;;;;;;37.07;31.57;;;;;;;5.50;100.00;101174.34;5242390;28;20057;-67
2023/04/21 03:28:56;;;;;;;40.47;32.93;;;;;;;5.50;100.00;101175.22;5241119;28;20032;-66
2023/04/21 03:31:27;;;;;;;39.77;32.40;;;;;;;5.47;100.00;101177.75;5242573;28;20087;-67
2023/04/21 03:33:58;;;;;;;43.87;36.33;;;;;;;5.50;100.00;101170.03;5242299;28;20079;-68
2023/04/21 03:36:30;;;;;;;46.33;36.20;;;;;;;5.48;100.00;101171.75;5242322;28;20041;-67
2023/04/21 03:39:01;;;;;;;45.80;36.13;;;;;;;5.50;100.00;101169.19;5241494;28;20476;-67
2023/04/21 03:41:32;;;;;;;45.80;35.70;;;;;;;5.49;100.00;101157.97;5240681;28;20041;-67
2023/04/21 03:44:04;;;;;;;44.87;37.57;;;;;;;5.45;100.00;101169.97;5240462;28;20128;-67
2023/04/21 03:46:35;;;;;;;49.23;37.13;;;;;;;5.51;100.00;101171.78;5242083;28;20037;-67
2023/04/21 03:49:07;;;;;;;43.03;35.90;;;;;;;5.53;100.00;101164.91;5242436;28;20044;-67
2023/04/21 03:51:38;;;;;;;48.90;39.17;;;;;;;5.57;100.00;101170.97;5241941;28;20030;-67
2023/04/21 03:54:09;;;;;;;49.00;39.13;;;;;;;5.64;100.00;101167.66;5241753;28;20037;-67
2023/04/21 03:56:41;;;;;;;47.50;37.73;;;;;;;5.74;100.00;101166.91;5241678;28;20033;-67
2023/04/21 03:59:12;;;;;;;53.93;41.63;;;;;;;5.80;100.00;101169.59;5242291;28;20068;-67
2023/04/21 04:01:43;;;;;;;50.97;38.83;;;;;;;5.86;100.00;101174.00;5241944;28;20092;-67
2023/04/21 04:04:15;;;;;;;50.73;39.30;;;;;;;5.90;100.00;101162.81;5242017;28;20048;-67
2023/04/21 04:06:46;;;;;;;46.53;38.43;;;;;;;5.94;100.00;101168.88;5241891;28;20033;-64
2023/04/21 04:09:17;;;;;;;50.67;39.47;;;;;;;5.96;100.00;101169.78;5241769;28;20061;-67
2023/04/21 04:11:49;;;;;;;46.23;37.43;;;;;;;6.02;100.00;101169.88;5242022;28;20457;-67
2023/04/21 04:14:20;;;;;;;51.83;41.27;;;;;;;6.09;100.00;101161.34;5242066;28;20453;-67
2023/04/21 04:16:52;;;;;;;55.67;42.87;;;;;;;6.13;100.00;101164.84;5240841;28;20065;-65
2023/04/21 04:19:29;;;;;;;57.60;43.73;;;;;;;6.16;100.00;101152.78;5241641;28;20045;-65
2023/04/21 04:22:00;;;;;;;54.85;43.72;;;;;;;6.19;100.00;101155.41;5245224;28;20033;-65
2023/04/21 04:24:33;;;;;;;53.50;43.97;;;;;;;6.22;100.00;101157.19;5245538;28;20099;-66
2023/04/21 04:27:04;;;;;;;56.25;45.10;;;;;;;6.23;100.00;101150.28;5245458;28;20037;-66
2023/04/21 04:29:35;;;;;;;55.17;42.57;;;;;;;6.23;100.00;101150.28;5246065;28;20373;-67
2023/04/21 04:32:09;;;;;;;55.87;42.93;;;;;;;6.26;100.00;101161.53;5245879;28;20056;-66
2023/04/21 04:34:41;;;;;;;54.13;43.05;;;;;;;6.25;100.00;101151.16;5245611;28;20029;-66
2023/04/21 04:37:12;;;;;;;59.67;44.73;;;;;;;6.20;100.00;101149.41;5245198;28;20044;-66
2023/04/21 04:39:43;;;;;;;54.30;44.07;;;;;;;6.26;100.00;101152.91;5244097;28;20032;-66
2023/04/21 04:42:15;;;;;;;56.53;44.73;;;;;;;6.25;100.00;101158.91;5245659;28;20092;-66
2023/04/21 04:44:46;;;;;;;56.70;44.50;;;;;;;6.31;100.00;101164.16;5245302;28;20515;-66
2023/04/21 04:47:18;;;;;;;61.40;46.10;;;;;;;6.26;100.00;101165.84;5246316;28;20388;-66
2023/04/21 04:49:49;;;;;;;60.10;45.67;;;;;;;6.25;100.00;101166.69;5245529;28;20465;-66
2023/04/21 04:52:21;;;;;;;52.40;44.07;;;;;;;6.30;100.00;101160.72;5245201;28;20389;-66
2023/04/21 04:54:52;;;;;;;61.10;45.03;;;;;;;6.32;100.00;101165.91;5243975;28;20480;-66
2023/04/21 04:57:24;;;;;;;55.37;43.93;;;;;;;6.31;100.00;101166.75;5243916;28;20076;-66
2023/04/21 04:59:55;;;;;;;64.50;46.97;;;;;;;6.32;100.00;101166.78;5245109;28;20061;-66
2023/04/21 05:02:26;;;;;;;60.43;45.10;;;;;;;6.35;100.00;101164.22;5245152;28;20064;-67
2023/04/21 05:04:58;;;;;;;59.97;46.73;;;;;;;6.40;100.00;101172.03;5245159;28;20068;-66
2023/04/21 05:07:29;;;;;;;59.13;46.07;;;;;;;6.46;100.00;101171.25;5244031;28;20029;-65
2023/04/21 05:10:03;;;;;;;64.07;46.73;;;;;;;6.51;100.00;101167.84;5243910;28;20044;-66
2023/04/21 05:12:34;;;;;;;62.03;46.38;;;;;;;6.51;100.00;101161.81;5244870;28;20135;-67
2023/04/21 05:15:06;;;;;;;68.63;48.77;;;;;;;6.57;100.00;101173.09;5243861;28;20069;-68
2023/04/21 05:17:37;;;;;;;70.47;48.77;;;;;;;6.63;100.00;101171.41;5243647;28;20034;-67
2023/04/21 05:20:10;;;;;;;64.87;50.40;;;;;;;6.64;100.00;101176.59;5244495;28;20091;-67
2023/04/21 05:22:41;;;;;;;62.78;49.08;;;;;;;6.69;100.00;101174.06;5244316;28;20025;-67
2023/04/21 05:25:16;;;;;;;69.80;50.70;;;;;;;6.71;100.00;101174.94;5244791;28;20025;-67
2023/04/21 05:27:47;;;;;;;66.32;49.88;;;;;;;6.81;100.00;101181.06;5245378;28;20044;-67
2023/04/21 05:30:19;;;;;;;67.63;50.93;;;;;;;6.88;100.00;101188.91;5244216;28;20033;-67
2023/04/21 05:32:50;;;;;;;63.63;49.83;;;;;;;6.94;100.00;101188.13;5243035;28;20030;-68
2023/04/21 05:35:22;;;;;;;57.40;46.87;;;;;;;6.97;100.00;101195.91;5244698;28;20187;-67
2023/04/21 05:37:53;;;;;;;64.13;48.73;;;;;;;7.00;100.00;101208.03;5244125;28;20060;-68
2023/04/21 05:40:25;;;;;;;61.20;48.77;;;;;;;7.00;100.00;101197.66;5243205;28;20070;-66
2023/04/21 05:42:56;;;;;;;61.53;48.47;;;;;;;7.00;100.00;101203.69;5244715;28;20103;-66
2023/04/21 05:45:27;;;;;;;63.43;48.77;;;;;;;6.99;100.00;101198.50;5244604;28;20021;-66
2023/04/21 05:47:59;;;;;;;63.47;49.03;;;;;;;7.00;100.00;101190.72;5244248;28;20029;-65
2023/04/21 05:50:32;;;;;;;66.70;50.60;;;;;;;7.02;100.00;101201.13;5243769;28;20456;-66
2023/04/21 05:53:04;;;;;;;65.38;49.90;;;;;;;6.98;100.00;101200.22;5244107;28;20036;-65
2023/04/21 05:55:36;;;;;;;66.77;50.67;;;;;;;7.04;100.00;101200.28;5244100;28;20386;-65
2023/04/21 05:58:08;;;;;;;66.65;51.20;;;;;;;7.03;100.00;101195.94;5244125;28;20032;-65
2023/04/21 06:00:39;;;;;;;64.10;49.57;;;;;;;7.02;100.00;101195.94;5244574;28;20489;-65
2023/04/21 06:03:11;;;;;;;61.13;49.07;;;;;;;7.07;100.00;101194.28;5242715;28;20038;-65
2023/04/21 06:05:42;;;;;;;62.00;48.60;;;;;;;7.06;100.00;101201.16;5242472;28;20461;-65
2023/04/21 06:08:13;;;;;;;59.30;49.33;;;;;;;7.15;100.00;101191.72;5243611;28;20030;-66
2023/04/21 06:10:45;;;;;;;64.07;48.37;;;;;;;7.11;100.00;101191.69;5243326;28;20034;-66
2023/04/21 06:13:16;;;;;;;63.07;48.33;;;;;;;7.10;100.00;101191.72;5244143;28;20045;-66
2023/04/21 06:15:48;;;;;;;64.33;49.33;;;;;;;7.09;100.00;101183.03;5243790;28;20124;-66
2023/04/21 06:18:19;;;;;;;62.70;49.03;;;;;;;7.16;100.00;101194.31;5242518;28;20041;-66
2023/04/21 06:20:54;;;;;;;65.03;50.97;;;;;;;7.18;100.00;101187.44;5243305;28;20036;-66
2023/04/21 06:23:25;;;;;;;64.38;49.22;;;;;;;7.26;100.00;101192.66;5243466;28;20499;-66
2023/04/21 06:26:00;;;;;;;62.20;47.43;;;;;;;7.50;100.00;101191.97;5243270;28;20025;-66
2023/04/21 06:28:33;;;;;;;59.08;47.65;;;;;;;7.62;100.00;101189.47;5243790;28;20057;-67
2023/04/21 06:31:05;;;;;;;60.53;48.83;;;;;;;7.73;100.00;101189.53;5242742;28;20056;-67
2023/04/21 06:33:37;;;;;;;54.83;44.58;;;;;;;7.89;100.00;101198.25;5242997;28;20037;-66
2023/04/21 06:36:08;;;;;;;55.93;44.80;;;;;;;7.95;100.00;101200.91;5243126;28;20466;-66
2023/04/21 06:38:42;;;;;;;51.23;44.83;;;;;;;8.03;100.00;101196.59;5243054;28;20038;-66
2023/04/21 06:41:13;;;;;;;55.78;45.22;;;;;;;8.12;100.00;101206.16;5242013;28;20041;-67
2023/04/21 06:43:44;;;;;;;48.77;41.63;;;;;;;8.25;100.00;101204.47;5242348;28;20365;-66
2023/04/21 06:46:16;;;;;;;47.43;41.87;;;;;;;8.31;100.00;101204.50;5242881;28;20485;-66
2023/04/21 06:48:48;;;;;;;50.90;41.80;;;;;;;8.35;100.00;101197.56;5242645;28;20100;-67
2023/04/21 06:51:19;;;;;;;47.30;41.50;;;;;;;8.34;100.00;101191.50;5242325;28;20062;-66
2023/04/21 06:53:51;;;;;;;49.37;42.50;;;;;;;8.44;100.00;101194.19;5242753;28;20389;-67
2023/04/21 06:56:22;;;;;;;49.63;43.23;;;;;;;8.52;100.00;101197.66;5242400;28;20484;-66
2023/04/21 06:58:54;;;;;;;52.60;42.20;;;;;;;8.75;100.00;101195.09;5242162;28;20029;-71
2023/04/21 07:01:25;;;;;;;47.95;40.67;;;;;;;8.80;100.00;101198.56;5240804;28;20040;-66
2023/04/21 07:03:57;;;;;;;45.03;39.87;;;;;;;8.86;100.00;101208.09;5242602;28;20384;-66
2023/04/21 07:06:28;;;;;;;44.20;39.43;;;;;;;8.78;100.00;101200.28;5242048;28;20133;-65
2023/04/21 07:08:59;;;;;;;46.27;41.30;;;;;;;8.84;100.00;101191.63;5242496;28;20068;-66
2023/04/21 07:11:31;;;;;;;49.80;40.77;;;;;;;8.78;100.00;101189.03;5241377;28;20044;-66
2023/04/21 07:14:02;;;;;;;46.60;39.13;;;;;;;8.83;100.00;101197.69;5242550;28;20390;-66
2023/04/21 07:16:34;;;;;;;44.40;39.27;;;;;;;8.84;100.00;101196.81;5242251;28;20552;-66
2023/04/21 07:19:05;;;;;;;41.00;35.67;;;;;;;8.88;100.00;101195.97;5242333;28;20393;-67
2023/04/21 07:21:36;;;;;;;40.17;35.73;;;;;;;8.98;100.00;101202.03;5241774;28;20033;-67
2023/04/21 07:24:08;;;;;;;41.37;36.10;;;;;;;9.14;100.00;101203.78;5241070;28;20487;-66
2023/04/21 07:26:39;;;;;;;39.83;34.20;;;;;;;9.18;100.00;101199.47;5242061;28;20479;-66
2023/04/21 07:29:11;;;;;;;35.03;31.43;;;;;;;9.33;100.00;101201.19;5241557;28;20056;-66
2023/04/21 07:31:42;;;;;;;34.30;30.67;;;;;;;9.28;100.00;101201.19;5242577;28;20041;-66
2023/04/21 07:34:13;;;;;;;34.37;30.77;;;;;;;9.36;100.00;101196.81;5242122;28;20203;-66
2023/04/21 07:36:45;;;;;;;34.20;29.77;;;;;;;9.45;100.00;101199.44;5241999;28;20038;-65
2023/04/21 07:39:16;;;;;;;29.97;26.77;;;;;;;9.45;100.00;101196.81;5240715;28;20168;-66
2023/04/21 07:41:48;;;;;;;30.93;27.63;;;;;;;9.43;99.08;101193.34;5241954;28;20041;-66
2023/04/21 07:44:19;;;;;;;29.57;26.47;;;;;;;9.46;99.06;101201.13;5241815;28;20069;-66
2023/04/21 07:46:50;;;;;;;25.10;22.50;;;;;;;9.50;96.76;101199.41;5241602;28;20029;-66
2023/04/21 07:49:22;;;;;;;27.07;24.43;;;;;;;9.55;97.68;101194.22;5242454;28;20057;-66
2023/04/21 07:51:53;;;;;;;26.83;24.07;;;;;;;9.55;96.05;101200.28;5241685;28;20035;-66
2023/04/21 07:54:25;;;;;;;26.57;24.03;;;;;;;9.57;96.25;101197.66;5241675;28;20108;-66
2023/04/21 07:56:56;;;;;;;27.30;24.50;;;;;;;9.78;96.61;101197.59;5241231;28;20029;-66
2023/04/21 07:59:27;;;;;;;29.53;25.97;;;;;;;9.85;95.59;101193.25;5241816;28;20064;-65
2023/04/21 08:01:59;;;;;;;28.00;25.10;;;;;;;9.95;96.35;101194.97;5240482;28;20037;-66
2023/04/21 08:04:30;;;;;;;29.97;26.90;;;;;;;10.15;98.66;101189.66;5241649;28;20026;-66
2023/04/21 08:07:02;;;;;;;25.93;23.23;;;;;;;10.32;95.60;101188.69;5241692;28;20037;-68
2023/04/21 08:09:34;;;;;;;25.07;22.30;;;;;;;10.29;92.26;101181.78;5242087;28;20029;-66
2023/04/21 08:12:05;;;;;;;25.37;22.80;;;;;;;10.33;90.81;101185.25;5240288;28;20025;-65
2023/04/21 08:14:36;;;;;;;28.10;25.20;;;;;;;10.59;94.12;101187.72;5241898;28;20268;-67
2023/04/21 08:17:08;;;;;;;25.87;23.13;;;;;;;10.73;93.59;101180.66;5241260;28;20037;-65
2023/04/21 08:19:39;;;;;;;23.50;21.00;;;;;;;10.70;88.16;101179.81;5240843;28;20380;-66
2023/04/21 08:22:11;;;;;;;20.60;18.57;;;;;;;10.69;85.90;101180.69;5241939;28;20030;-65
2023/04/21 08:24:42;;;;;;;20.80;18.53;;;;;;;10.82;86.36;101187.56;5242190;28;20065;-66
2023/04/21 08:27:14;;;;;;;22.47;19.10;;;;;;;10.91;86.13;101182.25;5241448;28;20112;-65
2023/04/21 08:29:45;;;;;;;21.03;18.93;;;;;;;11.09;87.72;101185.59;5241495;28;20034;-66
2023/04/21 08:32:22;;;;;;;20.00;17.90;;;;;;;11.15;85.31;101189.91;5241507;28;20037;-65
2023/04/21 08:34:54;;;;;;;22.38;20.08;;;;;;;11.36;86.78;101175.81;5241797;28;20026;-66
2023/04/21 08:37:25;;;;;;;20.70;18.50;;;;;;;11.40;82.93;101174.88;5241890;28;20523;-70
2023/04/21 08:39:56;;;;;;;20.57;18.47;;;;;;;11.48;82.15;101180.91;5241411;28;20072;-67
2023/04/21 08:42:28;;;;;;;21.23;18.30;;;;;;;11.44;81.73;101179.19;5241114;28;20057;-67
2023/04/21 08:45:00;;;;;;;19.38;17.42;;;;;;;11.40;80.31;101175.75;5241620;28;20121;-68
2023/04/21 08:47:32;;;;;;;21.27;16.90;;;;;;;11.57;80.06;101177.31;5240056;28;20105;-67
2023/04/21 08:50:05;;;;;;;18.77;16.77;;;;;;;11.80;80.19;101179.66;5241215;28;20029;-67
2023/04/21 08:52:36;;;;;;;18.25;16.23;;;;;;;11.73;78.34;101176.28;5241086;28;20389;-67
2023/04/21 08:55:08;;;;;;;17.37;15.67;;;;;;;12.06;80.47;101182.03;5241200;28;20025;-67
2023/04/21 08:57:40;;;;;;;17.27;15.57;;;;;;;12.16;78.35;101177.53;5241795;28;20511;-67
2023/04/21 09:00:12;;;;;;;16.77;15.07;;;;;;;12.08;75.60;101174.16;5240514;28;20061;-66
2023/04/21 09:02:59;;;;;;;17.52;15.63;;;;;;;12.10;78.08;101175.00;5241514;28;20038;-67
2023/04/21 09:05:32;;;;;;;15.52;14.02;;;;;;;12.14;78.95;101167.13;5240848;28;20056;-67
2023/04/21 09:08:10;;;;;;;16.15;14.45;;;;;;;12.48;78.04;101165.78;5242676;28;20025;-66
2023/04/21 09:10:47;;;;;;;16.35;13.32;;;;;;;12.46;74.08;101164.91;5244686;28;20040;-66
2023/04/21 09:13:19;;;;;;;14.07;12.68;;;;;;;12.97;76.30;101164.16;5245324;28;20036;-66
2023/04/21 09:15:51;;;;;;;14.65;13.05;;;;;;;13.23;71.89;101163.69;5245210;28;20037;-66
2023/04/21 09:18:24;;;;;;;13.73;12.33;;;;;;;13.46;73.52;101161.56;5243587;28;20036;-66
2023/04/21 09:21:16;;;;;;;13.82;12.52;;;;;;;13.76;71.82;101161.84;5244454;28;20044;-67
2023/04/21 09:23:50;;;;;;;13.57;12.00;;;;;;;14.17;68.03;101151.41;5244285;28;20103;-67
2023/04/21 09:26:21;;;;;;;16.35;14.80;;;;;;;15.11;66.26;101152.69;5244478;28;20085;-68
2023/04/21 09:28:53;;;;;;;15.33;13.73;;;;;;;15.82;62.61;101150.78;5245187;28;20053;-67
2023/04/21 09:31:24;;;;;;;15.20;13.70;;;;;;;16.51;60.59;101157.50;5244291;28;20347;-67
2023/04/21 09:33:56;;;;;;;14.17;12.77;;;;;;;17.00;57.05;101155.97;5244430;28;20025;-66
2023/04/21 09:36:30;;;;;;;12.52;11.30;;;;;;;17.11;56.19;101166.09;5244390;28;20381;-66
2023/04/21 09:39:03;;;;;;;11.70;10.60;;;;;;;17.93;53.46;101156.19;5244208;28;20476;-67
2023/04/21 09:41:35;;;;;;;11.50;10.30;;;;;;;18.29;47.91;101153.06;5244745;28;20049;-65
2023/04/21 09:44:06;;;;;;;10.33;9.20;;;;;;;18.86;48.79;101148.16;5244880;28;20438;-67
2023/04/21 09:46:42;;;;;;;10.30;9.30;;;;;;;18.84;50.47;101150.00;5244267;28;20030;-66
2023/04/21 09:49:16;;;;;;;10.55;9.23;;;;;;;19.17;47.18;101151.28;5242782;28;20384;-66
2023/04/21 09:51:48;;;;;;;10.48;8.82;;;;;;;19.07;46.52;101149.03;5243816;28;20025;-66
2023/04/21 09:54:20;;;;;;;11.50;8.10;;;;;;;19.08;45.23;101147.28;5243111;28;20029;-66
2023/04/21 09:56:55;;;;;;;9.77;8.77;;;;;;;18.62;44.65;101143.84;5244002;28;20022;-66
2023/04/21 09:59:34;;;;;;;11.18;9.40;;;;;;;19.09;44.92;101141.91;5244572;28;20037;-66
2023/04/21 10:02:07;;;;;;;10.00;9.10;;;;;;;19.26;42.57;101145.63;5244753;28;20489;-66
2023/04/21 10:04:40;;;;;;;10.20;9.00;;;;;;;19.60;43.96;101142.31;5243991;28;20029;-66
2023/04/21 10:07:12;;;;;;;9.65;8.65;;;;;;;19.75;42.64;101137.28;5243552;28;20044;-66
2023/04/21 10:09:53;;;;;;;11.43;10.33;;;;;;;20.04;43.00;101133.31;5242638;28;20037;-66
2023/04/21 10:12:26;;;;;;;10.23;9.23;;;;;;;20.71;43.32;101133.66;5243701;28;20117;-66
2023/04/21 10:14:57;;;;;;;13.15;11.80;;;;;;;21.68;40.55;101136.63;5243796;28;20097;-66
2023/04/21 10:17:33;;;;;;;14.27;12.77;;;;;;;21.81;39.60;101129.72;5242800;28;20334;-66
2023/04/21 10:20:05;;;;;;;14.52;13.10;;;;;;;20.11;43.35;101120.63;5243360;28;20034;-66
2023/04/21 10:28:58;;;;;;;12.43;11.23;;;;;;;22.34;39.63;101109.13;5573941;23;20489;-69
2023/04/21 10:31:50;;;;;;;12.52;11.20;;;;;;;22.58;38.83;101101.53;5040597;29;20120;-68
2023/04/21 10:34:33;;;;;;;12.93;11.35;;;;;;;23.01;37.26;101097.31;5053115;29;20053;-68
2023/04/21 10:37:05;;;;;;;11.82;10.68;;;;;;;23.99;36.04;101091.22;5043303;29;20477;-68
2023/04/21 10:39:46;;;;;;;11.43;10.20;;;;;;;24.05;35.68;101083.78;5042263;29;20044;-71
2023/04/21 10:42:21;;;;;;;12.70;11.40;;;;;;;23.92;37.74;101089.06;5041777;29;20074;-68
2023/04/21 10:44:56;;;;;;;12.82;10.75;;;;;;;22.69;36.39;101087.63;5042828;29;20033;-68
2023/04/21 10:47:28;;;;;;;12.57;11.43;;;;;;;22.88;36.63;101079.41;5034025;29;20102;-68
2023/04/21 10:50:09;;;;;;;;;;;;;;;24.73;35.80;101090.88;5042876;29;20033;-70
2023/04/21 10:52:46;;;;;;;12.30;11.00;;;;;;;22.11;38.17;101077.69;5047947;29;19920;-68
2023/04/21 10:55:17;;;;;;;11.80;10.60;;;;;;;20.88;39.11;101078.03;5045194;29;20421;-68
2023/04/21 10:57:48;;;;;;;13.00;11.17;;;;;;;20.12;40.69;101072.06;5042791;29;20033;-68
2023/04/21 11:00:23;;;;;;;12.53;11.23;;;;;;;21.43;39.86;101076.03;5041616;29;20050;-71
2023/04/21 11:03:03;;;;;;;11.27;9.60;;;;;;;22.19;37.77;101063.03;5041251;29;20022;-69
2023/04/21 11:05:39;;;;;;;10.95;9.85;;;;;;;21.90;37.99;101066.47;5052257;29;20057;-68
2023/04/21 11:08:13;;;;;;;10.57;9.57;;;;;;;22.42;38.16;101068.00;5060643;29;20490;-71
2023/04/21 11:10:49;;;;;;;10.05;8.93;;;;;;;23.97;34.95;101061.19;5043324;29;20494;-68
2023/04/21 11:13:22;;;;;;;10.63;9.55;;;;;;;24.81;32.56;101056.56;5042114;29;20038;-68
2023/04/21 11:15:59;;;;;;;10.93;9.80;;;;;;;24.54;32.58;101053.91;5021682;29;20039;-68
2023/04/21 11:18:32;;;;;;;10.15;9.15;;;;;;;23.92;32.98;101051.78;5042105;29;20037;-68
2023/04/21 11:21:16;;;;;;;10.52;9.50;;;;;;;23.00;34.91;101037.09;5041723;29;20038;-68
2023/04/21 11:23:49;;;;;;;9.32;7.60;;;;;;;22.55;34.37;101024.66;5040779;29;20052;-68
2023/04/21 11:26:36;;;;;;;9.45;8.55;;;;;;;22.31;35.79;101023.47;5041797;29;20041;-68
2023/04/21 11:29:09;;;;;;;10.35;8.90;;;;;;;21.85;37.45;101027.78;5040003;29;20045;-68
2023/04/21 11:31:44;;;;;;;9.80;8.80;;;;;;;22.50;36.28;101021.44;5033265;29;20041;-68
2023/04/21 11:34:19;;;;;;;7.57;6.78;;;;;;;21.98;36.23;101017.31;5046192;29;20525;-68
2023/04/21 11:36:52;;;;;;;7.47;6.68;;;;;;;23.10;35.05;101014.31;5035557;29;20045;-68
2023/04/21 11:39:23;;;;;;;8.90;7.75;;;;;;;23.43;35.03;101005.19;5041709;29;20038;-69
2023/04/21 11:41:55;;;;;;;10.30;9.30;;;;;;;23.01;35.73;101001.59;5041792;29;20046;-68